Time;durP1;ratioP1;P1;durP2;ratioP2;P2;SDS_P1;SDS_P2;PMS_P1;PMS_P2;Temp;Humidity;BMP_temperature;BMP_pressure;BME280_temperature;BME280_humidity;BME280_pressure;Samples;Min_cycle;Max_cycle;Signal;HPM_P1;HPM_P2
2024/01/12 00:00:45;;;;;;;27.70;7.38;;;;;;;4.55;100.00;103424.88;10414215;28;20065;-66
2024/01/12 00:05:46;;;;;;;19.25;7.85;;;;;;;4.52;100.00;103431.28;10414961;28;20029;-66
2024/01/12 00:10:46;;;;;;;19.08;8.05;;;;;;;4.58;100.00;103427.38;10413631;28;20065;-66
2024/01/12 00:15:47;;;;;;;15.02;7.07;;;;;;;4.58;100.00;103422.84;10412934;28;20036;-67
2024/01/12 00:20:47;;;;;;;21.40;7.18;;;;;;;4.58;100.00;103424.69;10413481;28;20040;-67
2024/01/12 00:25:47;;;;;;;27.88;7.25;;;;;;;4.59;100.00;103429.06;10414363;28;20053;-68
2024/01/12 00:30:48;;;;;;;28.00;6.05;;;;;;;4.56;100.00;103407.81;10419306;28;20030;-68
2024/01/12 00:35:48;;;;;;;12.63;6.82;;;;;;;4.51;100.00;103405.41;10414811;28;20094;-68
2024/01/12 00:40:49;;;;;;;12.40;6.55;;;;;;;4.43;100.00;103392.50;10430148;28;20113;-68
2024/01/12 00:45:50;;;;;;;23.42;6.38;;;;;;;4.52;100.00;103412.50;10417834;28;20033;-67
2024/01/12 00:50:50;;;;;;;25.40;7.80;;;;;;;4.53;100.00;103413.34;10415967;28;20390;-69
2024/01/12 00:55:51;;;;;;;25.02;9.10;;;;;;;4.52;100.00;103411.66;10413558;28;20413;-67
2024/01/12 01:00:51;;;;;;;27.58;8.20;;;;;;;4.48;100.00;103423.53;10423002;28;20082;-67
2024/01/12 01:05:51;;;;;;;35.63;7.15;;;;;;;4.50;100.00;103426.97;10423195;28;20132;-66
2024/01/12 01:10:52;;;;;;;19.23;4.65;;;;;;;4.43;100.00;103422.00;10422070;28;20116;-68
2024/01/12 01:15:52;;;;;;;18.80;5.97;;;;;;;4.45;100.00;103424.59;10421283;28;20048;-67
2024/01/12 01:20:53;;;;;;;22.02;5.68;;;;;;;4.45;100.00;103429.09;10423214;28;20029;-67
2024/01/12 01:25:54;;;;;;;22.27;7.22;;;;;;;4.39;100.00;103415.09;10421145;28;20477;-68
2024/01/12 01:30:54;;;;;;;21.33;5.70;;;;;;;4.43;100.00;103422.00;10420712;28;20171;-68
2024/01/12 01:35:54;;;;;;;29.65;7.50;;;;;;;4.42;100.00;103424.78;10420382;28;20093;-66
2024/01/12 01:40:55;;;;;;;39.40;7.82;;;;;;;4.41;100.00;103426.59;10419304;28;20029;-67
2024/01/12 01:45:55;;;;;;;14.85;6.50;;;;;;;4.39;100.00;103427.66;10417523;28;20037;-67
2024/01/12 01:50:57;;;;;;;15.55;7.82;;;;;;;4.40;100.00;103430.25;10418774;28;20042;-68
2024/01/12 01:55:57;;;;;;;15.35;5.75;;;;;;;4.39;100.00;103425.81;10418308;28;20482;-69
2024/01/12 02:00:58;;;;;;;15.60;6.15;;;;;;;4.40;100.00;103427.56;10417791;28;20029;-69
2024/01/12 02:05:58;;;;;;;10.50;4.30;;;;;;;4.40;100.00;103430.25;10417821;28;20036;-69
2024/01/12 02:10:59;;;;;;;16.52;6.03;;;;;;;4.29;100.00;103411.25;10416883;28;20445;-68
2024/01/12 02:15:59;;;;;;;18.85;5.15;;;;;;;4.39;100.00;103425.81;10416626;28;20040;-70
2024/01/12 02:20:59;;;;;;;10.40;5.40;;;;;;;4.41;100.00;103429.28;10416673;28;20373;-68
2024/01/12 02:26:00;;;;;;;14.10;4.80;;;;;;;4.43;100.00;103416.66;10415414;28;20041;-68
2024/01/12 02:31:00;;;;;;;20.55;4.78;;;;;;;4.39;100.00;103415.09;10431544;28;20438;-69
2024/01/12 02:36:01;;;;;;;13.18;4.45;;;;;;;4.39;100.00;103419.59;10414987;28;20064;-67
2024/01/12 02:41:01;;;;;;;18.55;5.13;;;;;;;4.39;100.00;103427.66;10417489;28;20045;-67
2024/01/12 02:46:01;;;;;;;9.85;4.32;;;;;;;4.39;100.00;103419.59;10415724;28;20037;-69
2024/01/12 02:51:02;;;;;;;18.17;7.30;;;;;;;4.37;100.00;103414.34;10416387;28;20068;-68
2024/01/12 02:56:03;;;;;;;10.07;5.35;;;;;;;4.37;100.00;103417.03;10415040;28;20055;-68
2024/01/12 03:01:03;;;;;;;24.00;6.00;;;;;;;4.36;100.00;103404.53;10413773;28;20045;-69
2024/01/12 03:06:05;;;;;;;6.40;3.55;;;;;;;4.35;100.00;103404.66;10413479;28;20033;-68
2024/01/12 03:11:06;;;;;;;11.43;4.93;;;;;;;4.28;100.00;103395.28;10415036;28;20354;-70
2024/01/12 03:16:16;;;;;;;15.13;5.60;;;;;;;4.28;100.00;103400.63;10430323;28;20069;-68
2024/01/12 03:21:17;;;;;;;7.68;3.88;;;;;;;4.26;100.00;103391.81;10429728;28;20053;-69
2024/01/12 03:26:17;;;;;;;8.50;4.40;;;;;;;4.26;100.00;103391.81;10413233;28;20026;-67
2024/01/12 03:31:19;;;;;;;12.20;5.50;;;;;;;4.23;100.00;103384.81;10429866;28;20033;-68
2024/01/12 03:36:22;;;;;;;9.73;3.88;;;;;;;4.30;100.00;103385.28;10414363;28;20103;-67
2024/01/12 03:41:23;;;;;;;17.55;4.85;;;;;;;4.26;100.00;103387.31;10414784;28;20448;-67
2024/01/12 03:46:23;;;;;;;14.10;4.38;;;;;;;4.25;100.00;103374.00;10416612;28;20040;-68
2024/01/12 03:51:23;;;;;;;7.20;4.20;;;;;;;4.26;100.00;103373.03;10414102;28;20450;-68
2024/01/12 03:56:24;;;;;;;29.00;4.90;;;;;;;4.25;100.00;103365.97;10414662;28;20044;-69
2024/01/12 04:01:24;;;;;;;12.30;4.88;;;;;;;4.25;100.00;103363.28;10414106;28;20124;-69
2024/01/12 04:06:25;;;;;;;14.02;3.78;;;;;;;4.24;100.00;103369.56;10429177;28;20026;-68
2024/01/12 04:11:26;;;;;;;7.13;4.18;;;;;;;4.25;100.00;103355.22;10414412;28;20453;-69
2024/01/12 04:16:26;;;;;;;16.35;4.90;;;;;;;4.25;100.00;103358.78;10412825;28;20357;-70
2024/01/12 04:21:27;;;;;;;28.90;5.40;;;;;;;4.25;100.00;103368.63;10412562;28;20037;-70
2024/01/12 04:26:27;;;;;;;10.18;4.30;;;;;;;4.24;100.00;103367.75;10413653;28;20033;-69
2024/01/12 04:31:28;;;;;;;14.93;5.78;;;;;;;4.24;100.00;103377.63;10414829;28;20396;-68
2024/01/12 04:36:28;;;;;;;26.58;7.18;;;;;;;4.22;100.00;103380.41;10419317;28;20089;-70
2024/01/12 04:41:29;;;;;;;16.25;4.45;;;;;;;4.23;100.00;103382.13;10420826;28;20034;-68
2024/01/12 04:46:29;;;;;;;17.95;5.57;;;;;;;4.22;100.00;103366.16;10419870;28;20199;-69
2024/01/12 04:51:29;;;;;;;8.55;4.50;;;;;;;4.22;100.00;103375.06;10421137;28;20041;-68
2024/01/12 04:56:30;;;;;;;15.82;5.45;;;;;;;4.24;100.00;103364.22;10421011;28;20417;-69
2024/01/12 05:01:30;;;;;;;20.35;4.70;;;;;;;4.25;100.00;103361.44;10421285;28;20345;-69
2024/01/12 05:06:31;;;;;;;13.65;4.22;;;;;;;4.27;100.00;103350.59;10420900;28;20113;-70
2024/01/12 05:11:31;;;;;;;15.25;5.00;;;;;;;4.26;100.00;103349.75;10402188;28;20368;-69
2024/01/12 05:16:31;;;;;;;10.52;4.25;;;;;;;4.29;100.00;103354.94;10419657;28;20061;-70
2024/01/12 05:21:32;;;;;;;16.50;4.65;;;;;;;4.28;100.00;103366.63;10419227;28;20083;-70
2024/01/12 05:26:34;;;;;;;13.82;5.90;;;;;;;4.26;100.00;103373.03;10418591;28;20103;-69
2024/01/12 05:31:35;;;;;;;18.95;6.20;;;;;;;4.26;100.00;103373.91;10418215;28;20049;-69
2024/01/12 05:36:35;;;;;;;15.85;3.80;;;;;;;4.25;100.00;103369.50;10420488;28;20432;-69
2024/01/12 05:41:35;;;;;;;16.98;5.70;;;;;;;4.22;100.00;103363.47;10421432;28;20033;-70
2024/01/12 05:46:36;;;;;;;20.88;5.45;;;;;;;4.28;100.00;103380.03;10419099;28;20148;-70
2024/01/12 05:51:36;;;;;;;17.85;4.88;;;;;;;4.30;100.00;103375.41;10416834;28;20382;-70
2024/01/12 05:56:37;;;;;;;13.35;5.18;;;;;;;4.27;100.00;103374.75;10402375;28;20033;-69
2024/01/12 06:01:37;;;;;;;15.20;6.22;;;;;;;4.27;100.00;103369.38;10416753;28;20112;-69
2024/01/12 06:06:40;;;;;;;9.45;4.95;;;;;;;4.25;100.00;103363.28;10418726;28;20054;-70
2024/01/12 06:11:42;;;;;;;11.38;4.68;;;;;;;4.26;100.00;103379.25;10355868;28;20050;-68
2024/01/12 06:16:43;;;;;;;12.98;4.07;;;;;;;4.27;100.00;103374.75;10416746;28;20055;-69
2024/01/12 06:21:43;;;;;;;12.35;4.40;;;;;;;4.28;100.00;103372.00;10416248;28;20040;-69
2024/01/12 06:26:43;;;;;;;9.00;3.55;;;;;;;4.24;100.00;103378.47;10418860;28;20048;-70
2024/01/12 06:31:44;;;;;;;18.20;6.15;;;;;;;4.22;100.00;103385.78;10419958;28;20053;-70
2024/01/12 06:36:44;;;;;;;12.15;5.45;;;;;;;4.22;100.00;103382.25;10418415;28;20107;-69
2024/01/12 06:41:46;;;;;;;8.32;4.55;;;;;;;4.19;100.00;103377.94;10418378;28;20336;-70
2024/01/12 06:46:46;;;;;;;11.20;3.60;;;;;;;4.24;100.00;103377.63;10417526;28;20033;-70
2024/01/12 06:51:47;;;;;;;14.15;5.13;;;;;;;4.23;100.00;103378.59;10416478;28;20492;-69
2024/01/12 06:56:47;;;;;;;4.55;4.05;;;;;;;4.14;100.00;103375.50;10415782;28;20060;-69
2024/01/12 07:01:48;;;;;;;17.70;6.82;;;;;;;4.11;100.00;103380.19;10414877;28;20036;-69
2024/01/12 07:06:48;;;;;;;8.88;4.95;;;;;;;4.14;100.00;103388.91;10397958;28;20456;-69
2024/01/12 07:11:48;;;;;;;27.08;6.80;;;;;;;4.16;100.00;103386.16;10413856;28;20040;-68
2024/01/12 07:16:49;;;;;;;14.35;5.55;;;;;;;4.17;100.00;103390.56;10415223;28;20056;-70
2024/01/12 07:21:49;;;;;;;10.27;4.10;;;;;;;4.15;100.00;103389.81;10415136;28;20042;-69
2024/01/12 07:26:50;;;;;;;8.50;4.90;;;;;;;4.12;100.00;103379.25;10415804;28;20060;-70
2024/01/12 07:31:50;;;;;;;12.98;6.18;;;;;;;4.14;100.00;103382.69;10414462;28;20048;-69
2024/01/12 07:36:51;;;;;;;21.67;6.88;;;;;;;4.17;100.00;103377.13;10429548;28;20050;-68
2024/01/12 07:41:51;;;;;;;12.25;5.50;;;;;;;4.15;100.00;103371.03;10413731;28;20029;-69
2024/01/12 07:46:52;;;;;;;8.10;5.25;;;;;;;4.18;100.00;103379.75;10413452;28;20076;-69
2024/01/12 07:51:52;;;;;;;9.60;5.07;;;;;;;4.21;100.00;103378.66;10413933;28;20357;-69
2024/01/12 07:56:54;;;;;;;5.15;4.65;;;;;;;4.22;100.00;103375.06;10414425;28;20430;-71
2024/01/12 08:01:54;;;;;;;10.02;5.72;;;;;;;4.20;100.00;103377.81;10414148;28;20033;-69
2024/01/12 08:06:54;;;;;;;8.35;5.60;;;;;;;4.30;100.00;103388.81;10419006;28;20078;-70
2024/01/12 08:11:55;;;;;;;17.48;6.70;;;;;;;4.34;100.00;103379.66;10414204;28;20056;-68
2024/01/12 08:16:55;;;;;;;17.13;5.20;;;;;;;4.38;100.00;103370.44;10414000;28;20120;-70
2024/01/12 08:21:56;;;;;;;15.25;7.50;;;;;;;4.56;100.00;103389.91;10412899;28;20172;-69
2024/01/12 08:26:56;;;;;;;12.63;4.47;;;;;;;4.63;100.00;103383.19;10428715;28;20419;-69
2024/01/12 08:31:58;;;;;;;13.40;5.53;;;;;;;4.71;100.00;103396.09;10412877;28;20030;-69
2024/01/12 08:36:59;;;;;;;27.58;6.55;;;;;;;4.74;100.00;103393.22;10412928;28;20055;-70
2024/01/12 08:41:59;;;;;;;11.88;5.13;;;;;;;4.79;100.00;103404.53;10412533;28;20040;-69
2024/01/12 08:47:00;;;;;;;15.73;7.22;;;;;;;4.78;100.00;103391.19;10412197;28;20025;-69
2024/01/12 08:52:00;;;;;;;18.90;6.72;;;;;;;4.92;100.00;103406.44;10416381;28;20488;-68
2024/01/12 08:57:00;;;;;;;35.22;7.85;;;;;;;4.96;100.00;103407.97;10416948;28;20089;-71
2024/01/12 09:02:01;;;;;;;21.10;7.00;;;;;;;5.01;100.00;103405.81;10414348;28;20151;-69
2024/01/12 09:07:01;;;;;;;22.40;7.00;;;;;;;5.06;100.00;103398.34;10414319;28;20147;-69
2024/01/12 09:12:02;;;;;;;11.02;5.35;;;;;;;5.15;100.00;103397.75;10427995;28;20021;-69
2024/01/12 09:17:02;;;;;;;24.08;5.80;;;;;;;5.22;100.00;103399.06;10412517;28;20452;-70
2024/01/12 09:22:03;;;;;;;17.88;5.35;;;;;;;5.28;100.00;103393.28;10419776;28;20033;-68
2024/01/12 09:27:03;;;;;;;12.48;4.97;;;;;;;5.37;100.00;103394.50;10419612;28;20064;-70
2024/01/12 09:32:04;;;;;;;20.95;6.72;;;;;;;5.39;100.00;103380.94;10419173;28;20518;-69
2024/01/12 09:37:06;;;;;;;26.52;5.32;;;;;;;5.47;100.00;103389.38;10420043;28;20053;-69
2024/01/12 09:42:06;;;;;;;35.75;7.18;;;;;;;5.52;100.00;103382.72;10419299;28;20036;-69
2024/01/12 09:47:07;;;;;;;11.68;4.35;;;;;;;5.64;100.00;103396.28;10417486;28;20064;-69
2024/01/12 09:52:08;;;;;;;17.52;4.25;;;;;;;5.72;100.00;103394.81;10417590;28;20033;-72
2024/01/12 09:57:08;;;;;;;15.73;4.72;;;;;;;5.75;100.00;103383.84;10418872;28;20034;-69
2024/01/12 10:02:11;;;;;;;13.45;4.75;;;;;;;5.78;100.00;103383.63;10417107;28;20056;-70
2024/01/12 10:07:12;;;;;;;10.32;5.28;;;;;;;5.90;100.00;103394.50;10420523;28;20029;-68
2024/01/12 10:12:12;;;;;;;12.32;4.47;;;;;;;5.97;100.00;103393.16;10420230;28;20108;-71
2024/01/12 10:17:13;;;;;;;12.13;4.18;;;;;;;6.07;100.00;103390.69;10420232;28;20356;-69
2024/01/12 10:22:14;;;;;;;15.55;4.68;;;;;;;6.16;100.00;103395.41;10419800;28;20033;-70
2024/01/12 10:27:14;;;;;;;15.90;5.60;;;;;;;6.21;100.00;103399.50;10420323;28;20049;-70
2024/01/12 10:32:18;;;;;;;10.60;4.75;;;;;;;6.18;100.00;103388.09;10420822;28;20033;-70
2024/01/12 10:37:19;;;;;;;14.10;4.90;;;;;;;6.22;100.00;103385.09;10420125;28;20025;-69
2024/01/12 10:42:20;;;;;;;21.67;5.50;;;;;;;6.30;100.00;103381.88;10421674;28;20033;-70
2024/01/12 10:47:21;;;;;;;9.00;4.15;;;;;;;6.36;100.00;103372.50;10438737;28;20453;-70
2024/01/12 10:52:51;;;;;;;21.15;6.55;;;;;;;6.39;100.00;103356.13;10404006;28;20087;-70
2024/01/12 10:57:51;;;;;;;14.27;4.75;;;;;;;6.47;100.00;103367.19;10416540;28;20017;-70
2024/01/12 11:02:52;;;;;;;18.75;4.45;;;;;;;6.41;100.00;103360.41;10419219;28;20025;-70
2024/01/12 11:07:53;;;;;;;24.85;5.28;;;;;;;6.52;100.00;103354.28;10402320;28;20029;-70
2024/01/12 11:12:53;;;;;;;13.80;4.47;;;;;;;6.62;100.00;103349.94;10417267;28;20032;-69
2024/01/12 11:17:54;;;;;;;14.70;3.97;;;;;;;6.70;100.00;103338.59;10400466;28;20029;-69
2024/01/12 11:22:54;;;;;;;9.85;3.83;;;;;;;6.68;100.00;103338.72;10416779;28;20137;-69
2024/01/12 11:27:56;;;;;;;11.25;3.60;;;;;;;6.70;100.00;103339.50;10416408;28;20044;-70
2024/01/12 11:33:00;;;;;;;10.75;3.92;;;;;;;6.64;100.00;103353.41;10413924;28;20119;-69
2024/01/12 11:38:01;;;;;;;14.93;4.85;;;;;;;6.67;100.00;103358.56;10430887;28;20213;-69
2024/01/12 11:43:03;;;;;;;12.02;3.22;;;;;;;6.73;100.00;103355.44;10415135;28;20462;-69
2024/01/12 11:48:03;;;;;;;20.60;3.90;;;;;;;6.81;100.00;103343.22;10413540;28;20156;-70
2024/01/12 11:53:05;;;;;;;7.88;3.45;;;;;;;6.81;100.00;103329.75;10397324;28;20030;-70
2024/01/12 11:58:06;;;;;;;9.70;3.40;;;;;;;6.81;100.00;103333.31;10429902;28;20028;-70
2024/01/12 12:03:08;;;;;;;9.63;2.75;;;;;;;6.84;100.00;103324.16;10414567;28;20461;-70
2024/01/12 12:08:09;;;;;;;12.75;2.70;;;;;;;6.89;100.00;103319.25;10429541;28;20415;-71
2024/01/12 12:13:10;;;;;;;8.82;2.50;;;;;;;6.85;100.00;103304.31;10413836;28;20167;-69
2024/01/12 12:18:10;;;;;;;1.65;1.55;;;;;;;6.93;100.00;103305.47;10396397;28;20029;-69
2024/01/12 12:23:11;;;;;;;9.75;2.20;;;;;;;6.92;100.00;103294.78;10411496;28;20464;-69
2024/01/12 12:28:11;;;;;;;1.63;1.52;;;;;;;6.89;100.00;103295.00;10413636;28;20071;-69
2024/01/12 12:33:12;;;;;;;5.90;2.55;;;;;;;6.79;100.00;103280.53;10415007;28;20053;-69
2024/01/12 12:38:12;;;;;;;2.85;1.48;;;;;;;6.96;100.00;103286.38;10396234;28;20414;-70
2024/01/12 12:43:12;;;;;;;2.35;1.63;;;;;;;7.08;100.00;103276.50;10412690;28;20056;-70
2024/01/12 12:48:13;;;;;;;15.18;2.45;;;;;;;7.06;100.00;103256.06;10411219;28;20426;-69
2024/01/12 12:53:14;;;;;;;2.40;1.65;;;;;;;7.47;100.00;103277.13;10413686;28;20056;-68
2024/01/12 12:58:15;;;;;;;1.92;1.77;;;;;;;7.53;100.00;103265.00;10421015;28;20057;-69
2024/01/12 13:03:16;;;;;;;1.10;1.00;;;;;;;7.52;100.00;103261.44;10420736;28;20033;-69
2024/01/12 13:08:16;;;;;;;8.75;1.77;;;;;;;7.32;100.00;103249.53;10420305;28;20029;-68
2024/01/12 13:13:17;;;;;;;4.97;1.42;;;;;;;7.01;100.00;103244.75;10421094;28;20033;-69
2024/01/12 13:18:18;;;;;;;8.50;2.08;;;;;;;6.64;100.00;103244.84;10420181;28;20100;-68
2024/01/12 13:23:19;;;;;;;1.08;0.95;;;;;;;6.46;100.00;103234.44;10422987;28;20396;-68
2024/01/12 13:28:19;;;;;;;2.85;1.52;;;;;;;6.38;100.00;103217.13;10419380;28;20327;-68
2024/01/12 13:33:19;;;;;;;1.27;1.17;;;;;;;6.44;100.00;103228.31;10435306;28;20072;-70
2024/01/12 13:38:20;;;;;;;4.97;2.33;;;;;;;6.39;100.00;103221.56;10420280;28;20025;-71
2024/01/12 13:43:20;;;;;;;14.82;1.67;;;;;;;6.50;100.00;103216.25;10419998;28;20030;-68
2024/01/12 13:48:26;;;;;;;3.40;0.98;;;;;;;6.44;100.00;103206.78;10418820;28;20033;-68
2024/01/12 13:53:27;;;;;;;6.90;2.40;;;;;;;6.53;100.00;103213.31;10433035;28;20107;-68
2024/01/12 13:58:28;;;;;;;10.35;1.65;;;;;;;6.73;100.00;103204.63;10418478;28;20034;-68
2024/01/12 14:03:28;;;;;;;3.08;2.40;;;;;;;6.69;100.00;103200.44;10418878;28;20071;-68
2024/01/12 14:08:28;;;;;;;2.05;1.30;;;;;;;6.63;100.00;103197.34;10419520;28;20049;-68
2024/01/12 14:13:29;;;;;;;5.70;1.80;;;;;;;6.59;100.00;103203.94;10416568;28;20460;-69
2024/01/12 14:18:29;;;;;;;9.48;2.13;;;;;;;6.52;100.00;103203.53;10417719;28;20353;-69
2024/01/12 14:23:30;;;;;;;1.75;1.20;;;;;;;6.49;100.00;103210.00;10416420;28;20064;-68
2024/01/12 14:28:30;;;;;;;2.95;1.92;;;;;;;6.45;100.00;103219.28;10417082;28;20079;-68
2024/01/12 14:33:33;;;;;;;5.57;1.70;;;;;;;6.43;100.00;103214.97;10433247;28;20056;-68
2024/01/12 14:38:33;;;;;;;1.73;1.40;;;;;;;6.23;100.00;103211.06;10432956;28;20025;-68
2024/01/12 14:43:34;;;;;;;7.97;1.98;;;;;;;6.16;100.00;103223.22;10417881;28;20461;-69
2024/01/12 14:48:34;;;;;;;0.82;0.82;;;;;;;5.94;100.00;103202.44;10418893;28;20075;-69
2024/01/12 14:53:38;;;;;;;0.95;0.95;;;;;;;5.82;100.00;103199.63;10416062;28;20472;-68
2024/01/12 14:58:40;;;;;;;3.45;1.05;;;;;;;5.81;100.00;103192.53;10431692;28;20047;-69
2024/01/12 15:03:40;;;;;;;1.45;1.35;;;;;;;5.90;100.00;103190.97;10417313;28;20144;-68
2024/01/12 15:08:41;;;;;;;3.10;1.25;;;;;;;5.92;100.00;103188.19;10415226;28;20099;-69
2024/01/12 15:13:41;;;;;;;3.65;2.28;;;;;;;5.78;100.00;103191.88;10414910;28;20037;-68
2024/01/12 15:18:42;;;;;;;1.45;1.38;;;;;;;5.62;100.00;103181.38;10412604;28;20065;-68
2024/01/12 15:23:42;;;;;;;5.43;1.48;;;;;;;5.56;100.00;103187.19;10415343;28;20033;-68
2024/01/12 15:28:42;;;;;;;2.60;1.35;;;;;;;5.41;100.00;103181.03;10415842;28;20084;-68
2024/01/12 15:33:43;;;;;;;1.58;1.48;;;;;;;5.33;100.00;103189.66;10415591;28;20049;-69
2024/01/12 15:38:43;;;;;;;2.65;1.63;;;;;;;5.27;100.00;103176.66;10413599;28;20060;-69
2024/01/12 15:43:44;;;;;;;1.95;1.63;;;;;;;5.17;100.00;103180.94;10414805;28;20441;-69
2024/01/12 15:48:44;;;;;;;4.70;1.83;;;;;;;5.22;100.00;103178.78;10415943;28;20218;-68
2024/01/12 15:53:44;;;;;;;1.95;1.50;;;;;;;5.25;100.00;103172.34;10414189;28;20033;-68
2024/01/12 15:58:45;;;;;;;3.15;1.77;;;;;;;5.26;100.00;103177.59;10414716;28;20045;-68
2024/01/12 16:03:45;;;;;;;4.22;2.05;;;;;;;5.17;100.00;103161.25;10416410;28;20036;-69
2024/01/12 16:08:46;;;;;;;1.38;1.38;;;;;;;5.18;100.00;103163.00;10414782;28;20053;-67
2024/01/12 16:13:46;;;;;;;4.00;2.58;;;;;;;5.07;100.00;103166.41;10414188;28;20064;-68
2024/01/12 16:18:47;;;;;;;14.25;2.40;;;;;;;5.03;100.00;103172.97;10396175;28;20160;-67
2024/01/12 16:23:47;;;;;;;3.72;1.73;;;;;;;5.03;100.00;103176.50;10413276;28;20038;-67
2024/01/12 16:28:47;;;;;;;7.85;2.35;;;;;;;5.04;100.00;103169.31;10433159;28;20086;-66
2024/01/12 16:33:48;;;;;;;4.40;2.42;;;;;;;5.04;100.00;103175.56;10421723;28;20091;-67
2024/01/12 16:38:48;;;;;;;3.45;2.35;;;;;;;4.92;100.00;103173.72;10420651;28;20037;-67
2024/01/12 16:43:49;;;;;;;2.45;2.25;;;;;;;4.80;100.00;103177.22;10423399;28;20033;-68
2024/01/12 16:48:49;;;;;;;5.72;1.85;;;;;;;4.87;100.00;103175.84;10425852;28;20077;-70
2024/01/12 16:53:50;;;;;;;3.45;2.33;;;;;;;4.93;100.00;103180.78;10427341;28;20021;-66
2024/01/12 16:58:51;;;;;;;1.58;1.48;;;;;;;4.96;100.00;103182.41;10427950;28;20030;-67
2024/01/12 17:03:51;;;;;;;2.95;2.28;;;;;;;4.90;100.00;103173.78;10438642;28;20111;-68
2024/01/12 17:08:52;;;;;;;4.00;2.35;;;;;;;4.73;100.00;103159.81;10423094;28;20029;-69
2024/01/12 17:13:52;;;;;;;1.70;1.60;;;;;;;4.76;100.00;103164.97;10422335;28;20088;-67
2024/01/12 17:18:53;;;;;;;2.70;1.83;;;;;;;4.82;100.00;103157.38;10421846;28;20040;-69
2024/01/12 17:23:53;;;;;;;3.10;2.10;;;;;;;4.91;100.00;103161.22;10420310;28;20523;-67
2024/01/12 17:28:55;;;;;;;5.57;2.10;;;;;;;4.98;100.00;103158.97;10419724;28;20018;-70
2024/01/12 17:33:55;;;;;;;4.80;2.00;;;;;;;4.97;100.00;103162.63;10418355;28;20140;-68
2024/01/12 17:38:56;;;;;;;11.30;1.98;;;;;;;4.93;100.00;103159.31;10433525;28;20086;-68
2024/01/12 17:43:57;;;;;;;9.80;2.97;;;;;;;4.87;100.00;103163.25;10419590;28;20036;-67
2024/01/12 17:48:57;;;;;;;5.60;2.50;;;;;;;4.85;100.00;103157.16;10419391;28;20033;-70
2024/01/12 17:53:58;;;;;;;2.67;1.42;;;;;;;4.86;100.00;103156.19;10419277;28;20102;-68
2024/01/12 17:58:58;;;;;;;3.00;1.83;;;;;;;4.73;100.00;103146.41;10418332;28;20429;-68
2024/01/12 18:03:59;;;;;;;1.38;1.15;;;;;;;4.46;100.00;103141.06;10419260;28;20021;-67
2024/01/12 18:09:04;;;;;;;2.20;2.00;;;;;;;4.46;100.00;103151.78;10418809;28;20033;-68
2024/01/12 18:14:04;;;;;;;8.70;2.58;;;;;;;4.63;100.00;103151.53;10417596;28;20025;-66
2024/01/12 18:19:05;;;;;;;4.68;1.85;;;;;;;4.79;100.00;103149.53;10419838;28;20482;-67
2024/01/12 18:24:05;;;;;;;5.38;2.85;;;;;;;4.86;100.00;103145.44;10424388;28;20357;-67
2024/01/12 18:29:06;;;;;;;7.40;2.50;;;;;;;4.89;100.00;103141.69;10423713;28;20120;-66
2024/01/12 18:34:06;;;;;;;7.43;3.40;;;;;;;4.93;100.00;103129.78;10418403;28;20442;-66
2024/01/12 18:39:06;;;;;;;3.75;3.03;;;;;;;4.86;100.00;103126.66;10416263;28;20112;-67
2024/01/12 18:44:07;;;;;;;5.35;3.33;;;;;;;4.88;100.00;103130.09;10419460;28;20032;-67
2024/01/12 18:49:07;;;;;;;4.50;3.10;;;;;;;4.93;100.00;103120.88;10417190;28;20032;-67
2024/01/12 18:54:08;;;;;;;4.25;2.95;;;;;;;4.93;100.00;103119.03;10416967;28;20449;-66
2024/01/12 18:59:08;;;;;;;2.78;2.47;;;;;;;4.84;100.00;103111.63;10416280;28;20126;-66
2024/01/12 19:04:10;;;;;;;3.33;2.45;;;;;;;4.49;100.00;103104.13;10417093;28;20025;-68
2024/01/12 19:09:14;;;;;;;2.80;2.28;;;;;;;4.18;100.00;103095.47;10418312;28;20063;-71
2024/01/12 19:14:14;;;;;;;4.18;3.22;;;;;;;4.14;100.00;103101.13;10419032;28;20396;-67
2024/01/12 19:19:15;;;;;;;4.03;2.92;;;;;;;4.23;100.00;103105.88;10418154;28;20088;-67
2024/01/12 19:24:17;;;;;;;3.53;3.22;;;;;;;4.39;100.00;103114.63;10417213;28;20087;-67
2024/01/12 19:29:17;;;;;;;3.35;1.65;;;;;;;4.52;100.00;103111.13;10419105;28;20112;-67
2024/01/12 19:34:18;;;;;;;7.22;3.75;;;;;;;4.58;100.00;103105.34;10414091;28;20049;-67
2024/01/12 19:39:18;;;;;;;5.07;3.65;;;;;;;4.62;100.00;103088.06;10414849;28;20472;-68
2024/01/12 19:44:18;;;;;;;7.75;3.60;;;;;;;4.65;100.00;103087.84;10414218;28;20112;-68
2024/01/12 19:49:19;;;;;;;4.38;3.17;;;;;;;4.69;100.00;103086.72;10414430;28;20033;-69
2024/01/12 19:54:19;;;;;;;4.05;2.20;;;;;;;4.74;100.00;103089.91;10412640;28;20147;-69
2024/01/12 19:59:20;;;;;;;8.60;3.38;;;;;;;4.74;100.00;103089.06;10414433;28;20037;-70
2024/01/12 20:04:20;;;;;;;3.28;2.80;;;;;;;4.78;100.00;103099.47;10412621;28;20029;-66
2024/01/12 20:09:21;;;;;;;1.77;1.67;;;;;;;4.80;100.00;103089.50;10414270;28;20033;-68
2024/01/12 20:14:21;;;;;;;5.28;2.85;;;;;;;4.73;100.00;103065.88;10414436;28;20025;-67
2024/01/12 20:19:22;;;;;;;5.43;2.63;;;;;;;4.83;100.00;103081.22;10413118;28;20034;-67
2024/01/12 20:24:22;;;;;;;3.60;3.30;;;;;;;4.86;100.00;103089.06;10414106;28;20052;-68
2024/01/12 20:29:22;;;;;;;4.00;2.78;;;;;;;4.84;100.00;103079.41;10413633;28;20419;-68
2024/01/12 20:34:23;;;;;;;2.58;2.38;;;;;;;4.78;100.00;103083.38;10413222;28;20064;-68
2024/01/12 20:39:23;;;;;;;3.35;2.25;;;;;;;4.64;100.00;103070.06;10411247;28;20030;-67
2024/01/12 20:44:24;;;;;;;13.18;2.55;;;;;;;4.44;100.00;103068.72;10414429;28;20034;-68
2024/01/12 20:49:24;;;;;;;4.63;2.95;;;;;;;4.23;100.00;103071.03;10432030;28;20376;-68
2024/01/12 20:54:25;;;;;;;7.70;3.40;;;;;;;4.12;100.00;103063.72;10417366;28;20037;-67
2024/01/12 20:59:25;;;;;;;8.23;3.60;;;;;;;4.06;100.00;103068.63;10413142;28;20042;-67
2024/01/12 21:04:25;;;;;;;4.80;2.58;;;;;;;4.11;100.00;103055.75;10412447;28;20073;-69
2024/01/12 21:09:26;;;;;;;11.82;4.28;;;;;;;4.33;100.00;103060.53;10412084;28;20092;-69
2024/01/12 21:14:28;;;;;;;9.25;4.85;;;;;;;4.39;100.00;103055.63;10413133;28;20053;-70
2024/01/12 21:19:28;;;;;;;8.55;5.68;;;;;;;4.46;100.00;103052.50;10418709;28;20127;-67
2024/01/12 21:24:28;;;;;;;11.80;5.15;;;;;;;4.41;100.00;103031.38;10423975;28;20026;-68
2024/01/12 21:29:29;;;;;;;5.00;4.50;;;;;;;4.51;100.00;103045.03;10420628;28;20025;-67
2024/01/12 21:34:29;;;;;;;4.38;4.07;;;;;;;4.49;100.00;103030.84;10418178;28;20049;-67
2024/01/12 21:39:30;;;;;;;6.45;5.55;;;;;;;4.50;100.00;103027.19;10401632;28;20030;-68
2024/01/12 21:44:30;;;;;;;5.78;4.95;;;;;;;4.45;100.00;103019.47;10419291;28;20030;-67
2024/01/12 21:49:30;;;;;;;10.27;6.72;;;;;;;4.47;100.00;103017.56;10419104;28;20091;-68
2024/01/12 21:54:31;;;;;;;7.78;6.10;;;;;;;4.50;100.00;103016.47;10418184;28;20026;-66
2024/01/12 21:59:31;;;;;;;14.38;6.70;;;;;;;4.51;100.00;103004.78;10419134;28;20491;-67
2024/01/12 22:04:32;;;;;;;7.07;6.10;;;;;;;4.55;100.00;102990.19;10417737;28;20041;-67
2024/01/12 22:09:32;;;;;;;6.93;5.45;;;;;;;4.54;100.00;102993.84;10419611;28;20116;-68
2024/01/12 22:14:32;;;;;;;5.15;4.07;;;;;;;4.49;100.00;102985.25;10418887;28;20108;-68
2024/01/12 22:19:33;;;;;;;8.18;4.60;;;;;;;4.31;100.00;102976.66;10418389;28;20398;-67
2024/01/12 22:24:33;;;;;;;4.88;4.47;;;;;;;4.20;100.00;102970.19;10417898;28;20038;-67
2024/01/12 22:29:34;;;;;;;5.78;5.30;;;;;;;4.16;100.00;102963.31;10417217;28;20107;-67
2024/01/12 22:34:35;;;;;;;7.75;5.70;;;;;;;4.29;100.00;102962.47;10417055;28;20042;-68
2024/01/12 22:39:37;;;;;;;6.22;5.47;;;;;;;4.34;100.00;102958.53;10416750;28;20033;-67
2024/01/12 22:44:37;;;;;;;9.70;7.25;;;;;;;4.34;100.00;102957.63;10417420;28;20053;-67
2024/01/12 22:49:37;;;;;;;5.82;5.32;;;;;;;4.37;100.00;102947.59;10417172;28;20025;-67
2024/01/12 22:54:38;;;;;;;7.55;6.80;;;;;;;4.40;100.00;102942.00;10419258;28;20026;-67